createdAt,value
2023-03-13T00:00:51.906Z,27.38
2023-03-13T00:03:19.262Z,25.45
2023-03-13T00:05:46.868Z,24.60
2023-03-13T00:08:15.755Z,22.50
2023-03-13T00:10:42.872Z,24.15
2023-03-13T00:13:10.447Z,22.95
2023-03-13T00:15:37.754Z,25.60
2023-03-13T00:18:05.077Z,21.75
2023-03-13T00:20:32.202Z,20.02
2023-03-13T00:22:59.451Z,23.73
2023-03-13T00:25:26.627Z,24.50
2023-03-13T00:27:53.708Z,23.75
2023-03-13T00:30:20.820Z,25.58
2023-03-13T00:32:48.679Z,21.85
2023-03-13T00:35:16.616Z,25.95
2023-03-13T00:37:43.706Z,22.25
2023-03-13T00:40:11.040Z,24.00
2023-03-13T00:42:38.450Z,26.38
2023-03-13T00:45:05.877Z,20.92
2023-03-13T00:47:33.046Z,23.17
2023-03-13T00:50:00.185Z,22.00
2023-03-13T00:52:28.209Z,24.25
2023-03-13T00:54:55.603Z,22.40
2023-03-13T00:57:22.892Z,24.55
2023-03-13T00:59:50.011Z,25.73
2023-03-13T01:02:17.288Z,27.42
2023-03-13T01:04:44.536Z,21.30
2023-03-13T01:07:11.659Z,22.70
2023-03-13T01:09:38.804Z,26.95
2023-03-13T01:12:06.266Z,24.77
2023-03-13T01:14:33.430Z,22.52
2023-03-13T01:17:00.618Z,21.23
2023-03-13T01:19:27.809Z,25.02
2023-03-13T01:21:54.933Z,26.33
2023-03-13T01:24:22.848Z,29.17
2023-03-13T01:26:49.961Z,26.33
2023-03-13T01:29:17.217Z,24.60
2023-03-13T01:31:44.332Z,24.55
2023-03-13T01:34:11.708Z,26.13
2023-03-13T01:36:38.946Z,24.85
2023-03-13T01:39:09.101Z,23.67
2023-03-13T01:41:36.345Z,22.73
2023-03-13T01:44:03.545Z,27.08
2023-03-13T01:46:30.875Z,26.48
2023-03-13T01:49:04.282Z,28.83
2023-03-13T01:51:34.035Z,29.45
2023-03-13T01:54:13.178Z,30.00
2023-03-13T01:56:49.221Z,32.00
2023-03-13T01:59:18.791Z,34.45
2023-03-13T02:01:47.681Z,30.67
2023-03-13T02:04:16.812Z,27.58
2023-03-13T02:06:46.027Z,27.63
2023-03-13T02:09:19.072Z,32.60
2023-03-13T02:12:07.750Z,31.52
2023-03-13T02:14:36.461Z,30.55
2023-03-13T02:17:03.962Z,31.20
2023-03-13T02:19:36.428Z,34.08
2023-03-13T02:22:12.464Z,32.47
2023-03-13T02:24:48.542Z,27.85
2023-03-13T02:27:15.793Z,25.48
2023-03-13T02:29:43.789Z,28.33
2023-03-13T02:32:10.983Z,33.67
2023-03-13T02:34:40.158Z,34.65
2023-03-13T02:37:10.773Z,27.02
2023-03-13T02:42:05.778Z,29.05
2023-03-13T02:44:32.915Z,27.35
2023-03-13T02:47:00.198Z,29.92
2023-03-13T02:49:28.546Z,29.83
2023-03-13T02:51:57.555Z,29.08
2023-03-13T02:54:32.052Z,30.98
2023-03-13T02:57:01.493Z,31.83
2023-03-13T02:59:28.581Z,31.25
2023-03-13T03:02:02.142Z,27.70
2023-03-13T03:04:29.281Z,28.95
2023-03-13T03:06:56.749Z,28.98
2023-03-13T03:09:24.161Z,27.35
2023-03-13T03:11:51.593Z,26.83
2023-03-13T03:14:18.866Z,31.42
2023-03-13T03:16:46.425Z,29.05
2023-03-13T03:19:13.672Z,35.10
2023-03-13T03:21:40.744Z,31.25
2023-03-13T03:24:08.073Z,32.72
2023-03-13T03:26:36.290Z,38.22
2023-03-13T03:29:03.499Z,37.35
2023-03-13T03:31:31.639Z,36.95
2023-03-13T03:33:58.811Z,31.23
2023-03-13T03:36:26.183Z,29.95
2023-03-13T03:38:53.281Z,26.85
2023-03-13T03:41:20.452Z,28.60
2023-03-13T03:43:48.234Z,29.65
2023-03-13T03:46:15.566Z,27.77
2023-03-13T03:48:42.907Z,30.08
2023-03-13T03:51:10.059Z,28.85
2023-03-13T03:53:37.147Z,26.45
2023-03-13T03:56:04.419Z,29.65
2023-03-13T03:58:31.611Z,28.98
2023-03-13T04:00:59.145Z,29.70
2023-03-13T04:03:26.767Z,29.42
2023-03-13T04:05:54.271Z,29.50
2023-03-13T04:08:21.366Z,29.25
2023-03-13T04:10:48.764Z,29.85
2023-03-13T04:13:16.011Z,26.50
2023-03-13T04:15:43.453Z,33.17
2023-03-13T04:18:10.625Z,27.38
2023-03-13T04:20:38.074Z,28.08
2023-03-13T04:23:05.293Z,31.45
2023-03-13T04:25:32.383Z,26.63
2023-03-13T04:27:59.498Z,30.58
2023-03-13T04:30:26.678Z,28.65
2023-03-13T04:32:54.099Z,28.67
2023-03-13T04:35:21.587Z,28.27
2023-03-13T04:37:48.895Z,26.80
2023-03-13T04:40:16.107Z,26.38
2023-03-13T04:42:43.269Z,27.52
2023-03-13T04:45:15.027Z,24.60
2023-03-13T04:47:42.204Z,23.83
2023-03-13T04:50:11.214Z,26.73
2023-03-13T04:52:38.390Z,27.80
2023-03-13T04:55:05.651Z,26.83
2023-03-13T04:57:32.898Z,27.20
2023-03-13T05:00:00.181Z,24.42
2023-03-13T05:02:27.406Z,26.98
2023-03-13T05:04:54.747Z,28.45
2023-03-13T05:07:21.919Z,29.17
2023-03-13T05:09:49.006Z,26.05
2023-03-13T05:12:16.282Z,26.98
2023-03-13T05:14:43.403Z,24.80
2023-03-13T05:17:12.585Z,27.58
2023-03-13T05:19:39.893Z,26.73
2023-03-13T05:22:07.019Z,25.60
2023-03-13T05:24:34.135Z,23.60
2023-03-13T05:27:02.688Z,25.27
2023-03-13T05:29:29.858Z,24.20
2023-03-13T05:31:57.027Z,25.67
2023-03-13T05:34:25.182Z,24.00
2023-03-13T05:36:52.494Z,24.58
2023-03-13T05:39:19.704Z,24.80
2023-03-13T05:41:47.241Z,27.33
2023-03-13T05:44:14.624Z,27.20
2023-03-13T05:46:41.817Z,28.33
2023-03-13T05:49:10.224Z,25.65
2023-03-13T05:51:37.694Z,26.65
2023-03-13T05:54:04.902Z,26.90
2023-03-13T05:56:32.117Z,28.75
2023-03-13T05:58:59.706Z,27.27
2023-03-13T06:01:26.876Z,24.60
2023-03-13T06:03:54.168Z,24.25
2023-03-13T06:06:21.518Z,25.15
2023-03-13T06:08:50.141Z,22.48
2023-03-13T06:11:17.246Z,24.90
2023-03-13T06:13:44.390Z,25.63
2023-03-13T06:16:11.670Z,28.83
2023-03-13T06:18:38.752Z,26.77
2023-03-13T06:21:05.988Z,27.42
2023-03-13T06:23:33.242Z,25.30
2023-03-13T06:26:01.511Z,29.90
2023-03-13T06:28:28.659Z,28.33
2023-03-13T06:30:55.942Z,30.60
2023-03-13T06:33:23.349Z,32.95
2023-03-13T06:35:56.781Z,39.60
2023-03-13T06:38:24.918Z,42.40
2023-03-13T06:40:52.091Z,43.35
2023-03-13T06:43:19.540Z,41.65
2023-03-13T06:45:46.908Z,39.13
2023-03-13T06:48:14.117Z,34.85
2023-03-13T06:50:41.689Z,30.05
2023-03-13T06:53:08.870Z,30.95
2023-03-13T06:55:36.017Z,29.58
2023-03-13T06:58:03.242Z,29.95
2023-03-13T07:00:30.508Z,30.77
2023-03-13T07:02:57.624Z,32.40
2023-03-13T07:05:24.985Z,33.40
2023-03-13T07:07:52.085Z,32.72
2023-03-13T07:10:19.357Z,35.55
2023-03-13T07:12:46.751Z,37.03
2023-03-13T07:15:13.857Z,43.30
2023-03-13T07:17:41.034Z,40.17
2023-03-13T07:20:10.650Z,38.50
2023-03-13T07:22:38.159Z,37.00
2023-03-13T07:25:06.055Z,36.97
2023-03-13T07:27:33.288Z,37.05
2023-03-13T07:30:00.444Z,37.50
2023-03-13T07:32:31.988Z,43.40
2023-03-13T07:34:59.202Z,54.30
2023-03-13T07:37:26.489Z,48.38
2023-03-13T07:39:53.600Z,50.63
2023-03-13T07:42:20.722Z,40.45
2023-03-13T07:44:47.820Z,40.35
2023-03-13T07:47:14.962Z,36.47
2023-03-13T07:49:44.130Z,34.50
2023-03-13T07:52:11.656Z,26.52
2023-03-13T07:54:38.926Z,28.33
2023-03-13T07:57:06.035Z,25.80
2023-03-13T07:59:33.126Z,21.40
2023-03-13T08:02:00.275Z,22.08
2023-03-13T08:04:27.346Z,21.48
2023-03-13T08:06:54.698Z,22.60
2023-03-13T08:09:22.059Z,21.52
2023-03-13T08:11:49.234Z,18.27
2023-03-13T08:14:16.618Z,21.05
2023-03-13T08:16:43.834Z,20.05
2023-03-13T08:19:11.084Z,18.77
2023-03-13T08:21:38.926Z,20.05
2023-03-13T08:24:07.547Z,17.77
2023-03-13T08:26:36.195Z,20.77
2023-03-13T08:29:04.737Z,15.65
2023-03-13T08:31:36.115Z,17.35
2023-03-13T08:34:03.589Z,19.33
2023-03-13T08:36:34.761Z,18.02
2023-03-13T08:39:03.038Z,17.80
2023-03-13T08:41:31.514Z,24.77
2023-03-13T08:43:58.659Z,24.45
2023-03-13T08:46:26.540Z,23.35
2023-03-13T08:48:54.635Z,21.65
2023-03-13T08:51:22.999Z,18.17
2023-03-13T08:53:50.932Z,19.00
2023-03-13T08:56:19.224Z,22.50
2023-03-13T08:58:49.862Z,19.73
2023-03-13T09:01:17.145Z,16.15
2023-03-13T09:03:44.438Z,18.23
2023-03-13T09:06:12.218Z,20.30
2023-03-13T09:08:41.475Z,18.00
2023-03-13T09:11:09.860Z,19.25
2023-03-13T09:13:38.531Z,21.10
2023-03-13T09:16:06.939Z,23.95
2023-03-13T09:18:34.882Z,17.02
2023-03-13T09:21:02.224Z,16.60
2023-03-13T09:23:29.391Z,19.63
2023-03-13T09:25:58.058Z,20.77
2023-03-13T09:28:26.265Z,17.88
2023-03-13T09:30:54.361Z,18.33
2023-03-13T09:33:25.526Z,18.08
2023-03-13T09:35:52.706Z,17.17
2023-03-13T09:38:20.939Z,18.63
2023-03-13T09:41:03.578Z,18.77
2023-03-13T09:43:51.910Z,20.30
2023-03-13T09:46:22.586Z,22.35
2023-03-13T09:48:52.001Z,18.33
2023-03-13T09:51:22.532Z,25.25
2023-03-13T09:53:55.444Z,20.85
2023-03-13T09:56:27.584Z,21.52
2023-03-13T09:58:56.430Z,20.25
2023-03-13T10:01:34.125Z,22.63
2023-03-13T10:04:07.383Z,24.20
2023-03-13T10:06:40.894Z,25.10
2023-03-13T10:09:31.361Z,17.85
2023-03-13T10:12:06.262Z,22.00
2023-03-13T10:14:36.287Z,22.48
2023-03-13T10:17:03.727Z,21.92
2023-03-13T10:19:37.861Z,22.48
2023-03-13T10:22:12.374Z,21.55
2023-03-13T10:24:45.857Z,21.05
2023-03-13T10:27:14.568Z,19.48
2023-03-13T10:29:41.801Z,22.67
2023-03-13T10:32:11.237Z,19.25
2023-03-13T10:34:51.334Z,19.50
2023-03-13T10:37:21.947Z,20.63
2023-03-13T10:39:49.152Z,19.02
2023-03-13T10:42:27.406Z,20.23
2023-03-13T10:44:59.681Z,20.92
2023-03-13T10:47:27.431Z,18.38
2023-03-13T10:49:57.363Z,18.40
2023-03-13T10:52:30.839Z,16.33
2023-03-13T10:55:02.694Z,17.70
2023-03-13T10:57:31.260Z,15.98
2023-03-13T10:59:59.027Z,22.35
2023-03-13T11:02:33.973Z,22.45
2023-03-13T11:05:01.906Z,23.23
2023-03-13T11:07:38.058Z,19.50
2023-03-13T11:10:18.831Z,16.63
2023-03-13T11:12:51.608Z,20.92
2023-03-13T11:15:29.747Z,19.63
2023-03-13T11:18:00.841Z,17.38
2023-03-13T11:20:29.409Z,20.27
2023-03-13T11:23:05.639Z,20.17
2023-03-13T11:25:40.802Z,23.35
2023-03-13T11:28:07.982Z,16.85
2023-03-13T11:30:47.236Z,21.00
2023-03-13T11:33:20.329Z,21.35
2023-03-13T11:35:47.434Z,19.15
2023-03-13T11:38:28.169Z,20.35
2023-03-13T11:41:19.163Z,14.55
2023-03-13T11:44:21.878Z,18.33
2023-03-13T11:47:04.069Z,17.60
2023-03-13T11:49:43.208Z,14.27
2023-03-13T11:52:28.829Z,18.77
2023-03-13T11:55:22.248Z,13.07
2023-03-13T11:58:05.957Z,15.52
2023-03-13T12:00:33.104Z,17.83
2023-03-13T12:03:16.946Z,13.57
2023-03-13T12:05:57.761Z,14.57
2023-03-13T12:08:31.837Z,16.98
2023-03-13T12:11:17.137Z,12.68
2023-03-13T12:13:51.167Z,19.98
2023-03-13T12:16:24.915Z,15.88
2023-03-13T12:18:53.051Z,13.98
2023-03-13T12:21:41.655Z,16.13
2023-03-13T12:24:30.965Z,18.30
2023-03-13T12:27:02.674Z,19.27
2023-03-13T12:29:41.367Z,15.23
2023-03-13T12:32:25.415Z,15.52
2023-03-13T12:34:56.751Z,14.63
2023-03-13T12:37:42.723Z,15.52
2023-03-13T12:40:28.350Z,15.30
2023-03-13T12:43:00.785Z,14.93
2023-03-13T12:45:29.522Z,13.05
2023-03-13T12:48:09.271Z,14.85
2023-03-13T12:50:39.349Z,17.50
2023-03-13T12:53:09.202Z,13.27
2023-03-13T12:55:56.485Z,14.52
2023-03-13T12:58:30.984Z,13.98
2023-03-13T13:01:03.089Z,12.27
2023-03-13T13:03:33.638Z,13.45
2023-03-13T13:06:11.497Z,12.55
2023-03-13T13:08:47.917Z,14.90
2023-03-13T13:11:33.878Z,13.00
2023-03-13T13:14:21.216Z,11.20
2023-03-13T13:17:06.918Z,14.95
2023-03-13T13:19:37.080Z,14.95
2023-03-13T13:22:23.026Z,19.05
2023-03-13T13:24:51.310Z,11.05
2023-03-13T13:27:48.006Z,18.83
2023-03-13T13:30:18.102Z,16.50
2023-03-13T13:32:50.396Z,16.73
2023-03-13T13:36:06.246Z,14.07
2023-03-13T13:42:00.841Z,14.38
2023-03-13T13:44:32.596Z,13.68
2023-03-13T13:47:20.289Z,12.63
2023-03-13T13:49:57.227Z,13.07
2023-03-13T13:52:35.407Z,9.82
2023-03-13T13:55:03.251Z,15.27
2023-03-13T13:57:35.810Z,15.05
2023-03-13T14:00:19.769Z,15.63
2023-03-13T14:02:51.462Z,13.57
2023-03-13T14:05:29.325Z,15.30
2023-03-13T14:07:56.512Z,11.07
2023-03-13T14:10:23.609Z,16.08
2023-03-13T14:12:55.053Z,15.95
2023-03-13T14:15:23.442Z,13.93
2023-03-13T14:17:51.898Z,16.25
2023-03-13T14:20:31.414Z,13.65
2023-03-13T14:23:01.568Z,10.23
2023-03-13T14:25:29.948Z,13.98
2023-03-13T14:27:57.123Z,14.15
2023-03-13T14:30:24.767Z,8.13
2023-03-13T14:32:52.529Z,9.85
2023-03-13T14:35:22.404Z,11.27
2023-03-13T14:37:51.931Z,11.80
2023-03-13T14:40:19.033Z,15.87
2023-03-13T14:42:51.384Z,15.43
2023-03-13T14:45:27.016Z,13.48
2023-03-13T14:47:54.714Z,7.07
2023-03-13T14:50:24.501Z,10.73
2023-03-13T14:52:53.918Z,11.77
2023-03-13T14:55:24.128Z,10.23
2023-03-13T14:58:01.995Z,15.15
2023-03-13T15:00:41.204Z,10.60
2023-03-13T15:03:18.985Z,7.88
2023-03-13T15:05:47.586Z,7.30
2023-03-13T15:08:19.242Z,17.17
2023-03-13T15:10:47.037Z,12.07
2023-03-13T15:13:18.477Z,11.27
2023-03-13T15:15:47.370Z,11.55
2023-03-13T15:18:18.103Z,11.15
2023-03-13T15:20:45.381Z,11.32
2023-03-13T15:23:15.233Z,8.82
2023-03-13T15:25:42.411Z,26.52
2023-03-13T15:28:20.388Z,16.33
2023-03-13T15:30:48.767Z,13.18
2023-03-13T15:33:17.145Z,13.10
2023-03-13T15:35:44.734Z,9.30
2023-03-13T15:38:16.087Z,10.80
2023-03-13T15:40:43.488Z,12.95
2023-03-13T15:43:11.085Z,18.83
2023-03-13T15:45:39.271Z,15.40
2023-03-13T15:48:16.881Z,16.67
2023-03-13T15:50:44.734Z,15.23
2023-03-13T15:53:22.660Z,18.00
2023-03-13T15:55:50.087Z,15.02
2023-03-13T15:58:17.651Z,15.20
2023-03-13T16:00:46.118Z,10.77
2023-03-13T16:03:19.287Z,14.70
2023-03-13T16:05:47.748Z,11.70
2023-03-13T16:08:37.533Z,12.63
2023-03-13T16:11:04.989Z,11.57
2023-03-13T16:13:32.147Z,11.23
2023-03-13T16:15:59.333Z,7.97
2023-03-13T16:18:26.718Z,10.02
2023-03-13T16:20:53.964Z,14.88
2023-03-13T16:23:21.117Z,13.73
2023-03-13T16:25:49.051Z,12.68
2023-03-13T16:28:16.220Z,17.67
2023-03-13T16:30:43.986Z,11.48
2023-03-13T16:33:11.844Z,12.23
2023-03-13T16:35:39.225Z,11.60
2023-03-13T16:38:08.515Z,13.48
2023-03-13T16:40:36.104Z,18.67
2023-03-13T16:43:03.570Z,16.23
2023-03-13T16:45:30.704Z,15.77
2023-03-13T16:47:57.839Z,15.30
2023-03-13T16:50:27.246Z,13.52
2023-03-13T16:52:54.694Z,14.38
2023-03-13T16:55:24.722Z,22.10
2023-03-13T16:57:52.335Z,15.25
2023-03-13T17:00:21.362Z,19.75
2023-03-13T17:02:48.633Z,14.20
2023-03-13T17:05:16.039Z,14.02
2023-03-13T17:07:47.877Z,11.05
2023-03-13T17:10:16.699Z,17.30
2023-03-13T17:12:43.839Z,14.32
2023-03-13T17:15:11.162Z,18.80
2023-03-13T17:17:38.561Z,17.27
2023-03-13T17:20:06.647Z,15.65
2023-03-13T17:22:34.488Z,12.88
2023-03-13T17:25:01.646Z,14.18
2023-03-13T17:27:28.728Z,15.50
2023-03-13T17:29:55.829Z,18.52
2023-03-13T17:32:25.170Z,14.85
2023-03-13T17:34:54.056Z,17.42
2023-03-13T17:37:22.201Z,15.95
2023-03-13T17:39:51.480Z,20.25
2023-03-13T17:42:19.531Z,17.05
2023-03-13T17:44:46.824Z,17.83
2023-03-13T17:47:15.622Z,20.60
2023-03-13T17:49:43.275Z,16.30
2023-03-13T17:52:14.706Z,14.70
2023-03-13T17:54:42.478Z,19.92
2023-03-13T17:57:17.261Z,22.20
2023-03-13T17:59:44.780Z,18.42
2023-03-13T18:02:13.333Z,20.48
2023-03-13T18:04:40.917Z,16.58
2023-03-13T18:07:45.317Z,22.25
2023-03-13T18:10:18.557Z,20.95
2023-03-13T18:12:45.686Z,21.38
2023-03-13T18:15:12.924Z,21.45
2023-03-13T18:17:40.540Z,18.80
2023-03-13T18:20:13.962Z,33.10
2023-03-13T18:22:41.120Z,25.70
2023-03-13T18:25:08.617Z,24.83
2023-03-13T18:27:42.786Z,23.45
2023-03-13T18:30:13.008Z,25.88
2023-03-13T18:32:40.134Z,20.38
2023-03-13T18:35:07.371Z,25.38
2023-03-13T18:37:34.508Z,23.17
2023-03-13T18:40:01.676Z,23.23
2023-03-13T18:42:28.836Z,22.30
2023-03-13T18:44:56.005Z,32.00
2023-03-13T18:47:27.182Z,34.08
2023-03-13T18:49:55.487Z,31.02
2023-03-13T18:52:22.574Z,36.17
2023-03-13T18:54:49.713Z,37.78
2023-03-13T18:57:18.156Z,32.75
2023-03-13T18:59:45.686Z,31.88
2023-03-13T19:02:14.318Z,29.35
2023-03-13T19:04:41.814Z,29.15
2023-03-13T19:07:13.737Z,27.02
2023-03-13T19:09:43.875Z,28.27
2023-03-13T19:12:12.600Z,22.77
2023-03-13T19:14:39.802Z,21.33
2023-03-13T19:17:11.020Z,21.88
2023-03-13T19:19:38.108Z,23.75
2023-03-13T19:22:05.224Z,26.13
2023-03-13T19:24:32.324Z,23.23
2023-03-13T19:27:00.384Z,22.40
2023-03-13T19:29:28.530Z,24.92
2023-03-13T19:31:55.811Z,36.72
2023-03-13T19:34:23.101Z,24.45
2023-03-13T19:36:53.302Z,27.80
2023-03-13T19:39:25.451Z,20.70
2023-03-13T19:41:53.356Z,28.02
2023-03-13T19:44:20.979Z,26.90
2023-03-13T19:46:48.302Z,25.98
2023-03-13T19:49:16.562Z,25.92
2023-03-13T19:51:43.790Z,30.50
2023-03-13T19:54:11.434Z,26.90
2023-03-13T19:56:39.876Z,33.25
2023-03-13T19:59:13.615Z,32.75
2023-03-13T20:01:40.796Z,32.47
2023-03-13T20:04:07.942Z,33.72
2023-03-13T20:06:35.527Z,32.38
2023-03-13T20:09:04.539Z,34.28
2023-03-13T20:11:31.824Z,38.72
2023-03-13T20:13:59.453Z,36.15
2023-03-13T20:16:27.954Z,37.40
2023-03-13T20:18:55.492Z,38.05
2023-03-13T20:21:23.243Z,30.13
2023-03-13T20:23:51.118Z,31.45
2023-03-13T20:26:19.303Z,31.08
2023-03-13T20:28:47.618Z,32.65
2023-03-13T20:31:15.541Z,29.73
2023-03-13T20:33:42.828Z,31.50
2023-03-13T20:36:11.613Z,29.88
2023-03-13T20:38:39.350Z,36.20
2023-03-13T20:41:06.569Z,32.35
2023-03-13T20:43:34.243Z,35.55
2023-03-13T20:46:02.898Z,36.76
2023-03-13T20:48:30.105Z,38.72
2023-03-13T20:51:00.163Z,38.05
2023-03-13T20:53:28.105Z,35.95
2023-03-13T20:55:55.498Z,36.28
2023-03-13T20:58:22.874Z,35.13
2023-03-13T21:00:50.181Z,34.33
2023-03-13T21:03:19.990Z,35.70
2023-03-13T21:05:47.231Z,31.85
2023-03-13T21:08:14.438Z,29.70
2023-03-13T21:10:42.543Z,29.27
2023-03-13T21:13:10.931Z,29.13
2023-03-13T21:15:38.469Z,28.42
2023-03-13T21:18:05.654Z,32.40
2023-03-13T21:20:32.825Z,32.45
2023-03-13T21:23:00.302Z,45.80
2023-03-13T21:25:27.588Z,47.15
2023-03-13T21:27:56.608Z,55.67
2023-03-13T21:30:24.426Z,61.30
2023-03-13T21:32:51.807Z,43.55
2023-03-13T21:35:19.947Z,40.60
2023-03-13T21:37:47.340Z,33.30
2023-03-13T21:40:14.601Z,35.42
2023-03-13T21:42:42.025Z,34.33
2023-03-13T21:45:09.814Z,33.58
2023-03-13T21:47:37.272Z,33.25
2023-03-13T21:50:08.775Z,40.67
2023-03-13T21:52:40.757Z,38.80
2023-03-13T21:55:09.531Z,40.55
2023-03-13T21:57:36.959Z,38.63
2023-03-13T22:00:08.090Z,39.13
2023-03-13T22:02:35.960Z,36.20
2023-03-13T22:05:03.892Z,35.00
2023-03-13T22:07:31.093Z,29.20
2023-03-13T22:09:58.805Z,26.60
2023-03-13T22:12:26.499Z,23.67
2023-03-13T22:14:56.109Z,24.30
2023-03-13T22:17:24.669Z,27.15
2023-03-13T22:19:51.891Z,26.70
2023-03-13T22:22:21.826Z,27.95
2023-03-13T22:24:49.110Z,28.10
2023-03-13T22:27:17.847Z,26.83
2023-03-13T22:29:45.034Z,26.40
2023-03-13T22:32:12.360Z,29.70
2023-03-13T22:34:44.987Z,26.77
2023-03-13T22:37:12.766Z,28.98
2023-03-13T22:39:40.127Z,28.30
2023-03-13T22:42:07.645Z,21.33
2023-03-13T22:44:34.801Z,23.88
2023-03-13T22:47:02.055Z,26.23
2023-03-13T22:49:29.615Z,24.02
2023-03-13T22:51:58.981Z,24.73
2023-03-13T22:54:26.269Z,24.55
2023-03-13T22:56:53.469Z,22.08
2023-03-13T22:59:20.902Z,24.23
2023-03-13T23:01:48.213Z,23.65
2023-03-13T23:04:15.884Z,21.05
2023-03-13T23:06:43.130Z,20.23
2023-03-13T23:09:10.740Z,22.98
2023-03-13T23:11:38.207Z,24.17
2023-03-13T23:14:05.483Z,24.70
2023-03-13T23:16:32.837Z,24.83
2023-03-13T23:18:59.957Z,25.65
2023-03-13T23:21:27.075Z,20.63
2023-03-13T23:23:54.625Z,19.95
2023-03-13T23:26:22.414Z,26.70
2023-03-13T23:28:50.232Z,25.88
2023-03-13T23:31:19.709Z,26.52
2023-03-13T23:33:47.429Z,35.10
2023-03-13T23:36:16.194Z,30.00
2023-03-13T23:38:43.898Z,27.13
2023-03-13T23:41:12.738Z,30.67
2023-03-13T23:43:40.389Z,28.60
2023-03-13T23:46:15.213Z,26.38
2023-03-13T23:48:42.459Z,27.13
2023-03-13T23:51:09.697Z,29.15
2023-03-13T23:53:40.967Z,25.63
2023-03-13T23:56:08.388Z,31.45
2023-03-13T23:58:35.605Z,26.92
